Time;durP1;ratioP1;P1;durP2;ratioP2;P2;SDS_P1;SDS_P2;PMS_P1;PMS_P2;Temp;Humidity;BMP_temperature;BMP_pressure;BME280_temperature;BME280_humidity;BME280_pressure;Samples;Min_cycle;Max_cycle;Signal;HPM_P1;HPM_P2
2021/03/11 00:00:01;;;;;;;325.02;137.73;;;;;;;;;;5019433;28;20320;-86
2021/03/11 00:02:27;;;;;;;322.35;136.82;;;;;;;;;;5008365;28;20030;-87
2021/03/11 00:04:53;;;;;;;297.88;129.85;;;;;;;;;;4998079;28;20034;-86
2021/03/11 00:07:20;;;;;;;280.55;122.65;;;;;;;;;;4999254;28;20037;-86
2021/03/11 00:09:46;;;;;;;257.90;117.20;;;;;;;;;;4999299;28;20030;-86
2021/03/11 00:12:12;;;;;;;243.10;108.57;;;;;;;;;;4999409;28;20078;-86
2021/03/11 00:14:38;;;;;;;252.90;110.53;;;;;;;;;;4981724;28;20065;-84
2021/03/11 00:17:05;;;;;;;237.80;108.20;;;;;;;;;;4998982;28;20032;-83
2021/03/11 00:19:31;;;;;;;225.40;104.85;;;;;;;;;;4998866;28;20026;-83
2021/03/11 00:21:57;;;;;;;302.70;134.27;;;;;;;;;;4998866;28;20069;-84
2021/03/11 00:24:23;;;;;;;307.27;132.82;;;;;;;;;;4998428;28;20058;-82
2021/03/11 00:26:50;;;;;;;285.85;123.03;;;;;;;;;;4998748;28;20054;-84
2021/03/11 00:29:16;;;;;;;249.52;112.93;;;;;;;;;;4998717;28;20018;-83
2021/03/11 00:31:42;;;;;;;253.27;111.10;;;;;;;;;;4998367;28;20046;-83
2021/03/11 00:34:08;;;;;;;243.73;108.72;;;;;;;;;;4998458;28;20023;-83
2021/03/11 00:36:34;;;;;;;244.73;109.22;;;;;;;;;;4998500;28;20049;-84
2021/03/11 00:39:00;;;;;;;206.63;95.63;;;;;;;;;;4998507;28;20030;-85
2021/03/11 00:41:26;;;;;;;181.98;86.18;;;;;;;;;;4998346;28;20431;-83
2021/03/11 00:43:52;;;;;;;114.40;56.38;;;;;;;;;;4998315;28;20467;-84
2021/03/11 00:46:19;;;;;;;94.13;47.25;;;;;;;;;;4998223;28;20421;-84
2021/03/11 00:48:45;;;;;;;90.05;44.95;;;;;;;;;;4998417;28;20121;-84
2021/03/11 00:51:11;;;;;;;98.45;46.38;;;;;;;;;;4998060;28;20042;-87
2021/03/11 00:53:37;;;;;;;90.30;45.78;;;;;;;;;;4998509;28;20364;-87
2021/03/11 00:56:03;;;;;;;92.10;46.35;;;;;;;;;;4998537;28;20344;-87
2021/03/11 00:58:29;;;;;;;86.93;43.72;;;;;;;;;;4997507;28;20034;-87
2021/03/11 01:00:55;;;;;;;80.30;41.28;;;;;;;;;;4996943;28;20066;-87
2021/03/11 01:03:21;;;;;;;73.18;37.45;;;;;;;;;;5013996;28;20037;-87
2021/03/11 01:05:47;;;;;;;67.18;35.33;;;;;;;;;;5017786;28;20029;-87
2021/03/11 01:08:15;;;;;;;65.70;33.20;;;;;;;;;;5016969;28;20057;-86
2021/03/11 01:11:18;;;;;;;57.22;31.05;;;;;;;;;;5017765;28;20031;-87
2021/03/11 01:13:44;;;;;;;61.75;29.95;;;;;;;;;;5017567;28;20057;-87
2021/03/11 01:16:10;;;;;;;59.10;30.52;;;;;;;;;;5017629;28;20026;-87
2021/03/11 01:18:36;;;;;;;61.13;29.88;;;;;;;;;;5017736;28;20491;-86
2021/03/11 01:21:03;;;;;;;77.72;36.45;;;;;;;;;;5016718;28;20029;-86
2021/03/11 01:23:29;;;;;;;86.07;39.40;;;;;;;;;;5017561;28;20045;-88
2021/03/11 01:25:55;;;;;;;51.67;28.67;;;;;;;;;;5017835;28;20030;-87
2021/03/11 01:28:21;;;;;;;49.25;27.27;;;;;;;;;;5017820;28;20026;-87
2021/03/11 01:30:47;;;;;;;49.92;26.85;;;;;;;;;;5017679;28;20393;-86
2021/03/11 01:33:13;;;;;;;45.08;25.25;;;;;;;;;;5002502;28;20394;-85
2021/03/11 01:35:39;;;;;;;49.75;25.42;;;;;;;;;;4997683;28;20023;-86
2021/03/11 01:38:06;;;;;;;51.10;26.40;;;;;;;;;;4996902;28;20069;-87
2021/03/11 01:40:33;;;;;;;48.60;25.10;;;;;;;;;;4997979;28;20030;-86
2021/03/11 01:42:59;;;;;;;57.78;33.30;;;;;;;;;;4997792;28;20034;-87
2021/03/11 01:45:25;;;;;;;48.55;26.65;;;;;;;;;;4996476;28;20057;-86
2021/03/11 01:47:51;;;;;;;51.22;26.95;;;;;;;;;;4997768;28;20125;-87
2021/03/11 01:50:18;;;;;;;54.47;27.48;;;;;;;;;;4997409;28;20025;-86
2021/03/11 01:52:44;;;;;;;99.55;47.88;;;;;;;;;;4997564;28;20054;-86
2021/03/11 01:55:29;;;;;;;70.40;36.20;;;;;;;;;;4996929;28;20026;-86
2021/03/11 01:57:56;;;;;;;58.80;31.73;;;;;;;;;;4998006;28;20025;-86
2021/03/11 02:00:22;;;;;;;65.55;32.15;;;;;;;;;;4997910;28;20029;-87
2021/03/11 02:02:50;;;;;;;54.50;29.00;;;;;;;;;;4997524;28;20030;-86
2021/03/11 02:05:17;;;;;;;59.53;30.75;;;;;;;;;;4997591;28;20038;-87
2021/03/11 02:07:44;;;;;;;54.35;29.77;;;;;;;;;;4996645;28;20026;-87
2021/03/11 02:10:22;;;;;;;54.28;29.88;;;;;;;;;;4996652;28;20030;-87
2021/03/11 02:13:00;;;;;;;57.38;29.35;;;;;;;;;;4998533;28;20029;-88
2021/03/11 02:15:43;;;;;;;49.08;27.77;;;;;;;;;;5000309;28;20125;-86
2021/03/11 02:18:13;;;;;;;53.00;26.70;;;;;;;;;;5001619;28;20041;-85
2021/03/11 02:20:43;;;;;;;54.42;28.35;;;;;;;;;;5001262;28;20030;-85
2021/03/11 02:23:35;;;;;;;52.38;27.88;;;;;;;;;;5000015;28;20042;-85
2021/03/11 02:26:19;;;;;;;46.92;26.08;;;;;;;;;;5000097;28;20037;-86
2021/03/11 02:28:53;;;;;;;51.70;25.50;;;;;;;;;;5001076;28;20034;-86
2021/03/11 02:31:20;;;;;;;48.88;25.45;;;;;;;;;;5001080;28;20033;-88
2021/03/11 02:33:47;;;;;;;54.50;27.77;;;;;;;;;;5000600;28;20049;-89
2021/03/11 02:36:14;;;;;;;49.85;26.60;;;;;;;;;;5000657;28;20054;-87
2021/03/11 02:38:40;;;;;;;51.50;27.65;;;;;;;;;;5001074;28;20073;-88
2021/03/11 02:41:07;;;;;;;51.65;27.60;;;;;;;;;;5001013;28;20034;-88
2021/03/11 02:43:33;;;;;;;57.53;28.80;;;;;;;;;;5000812;28;20022;-87
2021/03/11 02:45:59;;;;;;;50.08;28.15;;;;;;;;;;5000863;28;20499;-87
2021/03/11 02:48:25;;;;;;;51.05;28.20;;;;;;;;;;4999852;28;20026;-88
2021/03/11 02:50:52;;;;;;;50.40;28.02;;;;;;;;;;4999539;28;20046;-89
2021/03/11 02:53:18;;;;;;;52.35;28.48;;;;;;;;;;4999994;28;20409;-88
2021/03/11 02:56:21;;;;;;;54.88;29.15;;;;;;;;;;5000601;28;20018;-86
2021/03/11 02:58:48;;;;;;;60.20;30.63;;;;;;;;;;4999400;28;20034;-87
2021/03/11 03:01:16;;;;;;;52.25;27.95;;;;;;;;;;5000690;28;20036;-87
2021/03/11 03:03:42;;;;;;;59.00;30.42;;;;;;;;;;5000740;28;20036;-87
2021/03/11 03:06:09;;;;;;;52.78;28.73;;;;;;;;;;5000200;28;20022;-88
2021/03/11 03:08:36;;;;;;;58.38;30.60;;;;;;;;;;5000061;28;20113;-87
2021/03/11 03:11:02;;;;;;;87.28;34.20;;;;;;;;;;4999986;28;20109;-86
2021/03/11 03:13:29;;;;;;;63.38;30.92;;;;;;;;;;4999950;28;20039;-88
2021/03/11 03:15:56;;;;;;;57.42;30.17;;;;;;;;;;5000249;28;20042;-85
2021/03/11 03:18:22;;;;;;;72.47;37.60;;;;;;;;;;4999983;28;20029;-85
2021/03/11 03:20:49;;;;;;;71.75;37.40;;;;;;;;;;4999734;28;20038;-87
2021/03/11 03:23:15;;;;;;;82.63;40.42;;;;;;;;;;4999583;28;20033;-88
2021/03/11 03:25:41;;;;;;;88.13;42.78;;;;;;;;;;4998245;28;20405;-86
2021/03/11 03:28:08;;;;;;;89.60;42.67;;;;;;;;;;4999809;28;20090;-85
2021/03/11 03:30:34;;;;;;;88.22;43.65;;;;;;;;;;4998834;28;20029;-85
2021/03/11 03:33:00;;;;;;;84.68;41.35;;;;;;;;;;4998780;28;20328;-88
2021/03/11 03:35:26;;;;;;;74.18;39.63;;;;;;;;;;4998932;28;20026;-87
2021/03/11 03:37:52;;;;;;;88.50;43.13;;;;;;;;;;5000025;28;20026;-87
2021/03/11 03:40:43;;;;;;;82.25;40.55;;;;;;;;;;5000080;28;20050;-87
2021/03/11 03:43:14;;;;;;;82.53;39.75;;;;;;;;;;4998769;28;20030;-85
2021/03/11 03:45:53;;;;;;;77.93;39.03;;;;;;;;;;4999831;28;20350;-86
2021/03/11 03:48:20;;;;;;;84.18;40.63;;;;;;;;;;4999514;28;20069;-89
2021/03/11 03:50:47;;;;;;;84.35;41.22;;;;;;;;;;4999259;28;20437;-86
2021/03/11 03:53:18;;;;;;;79.68;38.33;;;;;;;;;;4999196;28;20022;-87
2021/03/11 03:55:45;;;;;;;83.60;39.85;;;;;;;;;;4999475;28;20105;-86
2021/03/11 03:58:12;;;;;;;79.55;40.28;;;;;;;;;;4999319;28;20073;-85
2021/03/11 04:00:38;;;;;;;80.13;40.75;;;;;;;;;;4999243;28;20106;-85
2021/03/11 04:03:06;;;;;;;86.72;42.22;;;;;;;;;;4998290;28;20085;-86
2021/03/11 04:05:32;;;;;;;88.10;44.42;;;;;;;;;;4999294;28;20049;-88
2021/03/11 04:07:59;;;;;;;79.50;43.72;;;;;;;;;;4998840;28;20431;-85
2021/03/11 04:10:25;;;;;;;82.80;42.88;;;;;;;;;;4999137;28;20345;-86
2021/03/11 04:12:51;;;;;;;81.15;41.20;;;;;;;;;;4999204;28;20356;-87
2021/03/11 04:15:17;;;;;;;91.18;44.13;;;;;;;;;;4999073;28;20033;-87
2021/03/11 04:17:44;;;;;;;89.85;44.13;;;;;;;;;;4998909;28;20084;-87
2021/03/11 04:20:10;;;;;;;75.72;39.08;;;;;;;;;;4998596;28;20117;-88
2021/03/11 04:22:36;;;;;;;81.78;40.30;;;;;;;;;;4998606;28;20150;-87
2021/03/11 04:25:03;;;;;;;83.00;41.47;;;;;;;;;;4999191;28;20424;-89
2021/03/11 04:27:47;;;;;;;94.85;47.47;;;;;;;;;;4998935;28;20176;-90
2021/03/11 04:30:14;;;;;;;95.45;47.28;;;;;;;;;;4999157;28;20329;-91
2021/03/11 04:32:42;;;;;;;82.60;43.50;;;;;;;;;;4999180;28;20093;-92
2021/03/11 04:35:09;;;;;;;102.45;51.50;;;;;;;;;;4998981;28;20109;-91
2021/03/11 04:37:36;;;;;;;103.68;51.08;;;;;;;;;;4998931;28;20416;-90
2021/03/11 04:40:03;;;;;;;95.13;45.25;;;;;;;;;;4998712;28;20117;-90
2021/03/11 04:42:29;;;;;;;89.95;48.38;;;;;;;;;;4997463;28;20033;-90
2021/03/11 04:44:55;;;;;;;91.38;43.17;;;;;;;;;;4998392;28;20026;-91
2021/03/11 04:47:22;;;;;;;87.63;42.42;;;;;;;;;;4998488;28;20030;-90
2021/03/11 04:49:48;;;;;;;82.70;39.53;;;;;;;;;;4998463;28;20034;-90
2021/03/11 04:52:15;;;;;;;77.18;39.95;;;;;;;;;;4997733;28;20444;-89
2021/03/11 04:54:41;;;;;;;80.88;41.03;;;;;;;;;;4998314;28;20397;-89
2021/03/11 04:57:07;;;;;;;75.70;38.83;;;;;;;;;;4998423;28;20041;-90
2021/03/11 04:59:33;;;;;;;75.70;40.13;;;;;;;;;;4998242;28;20157;-89
2021/03/11 05:02:01;;;;;;;78.72;38.75;;;;;;;;;;4998571;28;20030;-90
2021/03/11 05:04:27;;;;;;;77.88;36.83;;;;;;;;;;4998199;28;20073;-90
2021/03/11 05:06:53;;;;;;;67.50;35.13;;;;;;;;;;4998185;28;20026;-90
2021/03/11 05:09:20;;;;;;;78.38;36.35;;;;;;;;;;4998133;28;20556;-90
2021/03/11 05:11:46;;;;;;;101.88;47.08;;;;;;;;;;4998064;28;20042;-91
2021/03/11 05:14:12;;;;;;;147.05;61.55;;;;;;;;;;4997786;28;20057;-90
2021/03/11 05:16:38;;;;;;;128.32;58.28;;;;;;;;;;4998197;28;20378;-90
2021/03/11 05:19:04;;;;;;;161.82;70.35;;;;;;;;;;4998261;28;20022;-91
2021/03/11 05:21:30;;;;;;;156.98;73.22;;;;;;;;;;4994752;28;20043;-91
2021/03/11 05:23:56;;;;;;;133.50;63.03;;;;;;;;;;4977775;28;20413;-87
2021/03/11 05:26:22;;;;;;;134.73;61.28;;;;;;;;;;4978469;28;20154;-87
2021/03/11 05:28:48;;;;;;;133.68;63.67;;;;;;;;;;4978506;28;20023;-87
2021/03/11 05:31:14;;;;;;;128.93;62.80;;;;;;;;;;4978528;28;20105;-88
2021/03/11 05:33:40;;;;;;;124.90;57.05;;;;;;;;;;4978219;28;20033;-87
2021/03/11 05:36:06;;;;;;;111.72;47.97;;;;;;;;;;4978448;28;20089;-88
2021/03/11 05:38:33;;;;;;;96.63;46.45;;;;;;;;;;4978582;28;20078;-87
2021/03/11 05:40:59;;;;;;;97.15;48.83;;;;;;;;;;4978575;28;20038;-89
2021/03/11 05:43:25;;;;;;;97.85;48.83;;;;;;;;;;4978194;28;20054;-90
2021/03/11 05:45:52;;;;;;;96.93;50.00;;;;;;;;;;4977683;28;20325;-89
2021/03/11 05:48:18;;;;;;;83.40;43.70;;;;;;;;;;4978947;28;20109;-88
2021/03/11 05:50:44;;;;;;;122.63;56.13;;;;;;;;;;4982211;28;20031;-89
2021/03/11 05:53:13;;;;;;;278.15;111.80;;;;;;;;;;4997222;28;20018;-89
2021/03/11 05:55:42;;;;;;;256.85;105.82;;;;;;;;;;5001571;28;20042;-89
2021/03/11 05:58:08;;;;;;;282.15;100.45;;;;;;;;;;5000327;28;20027;-86
2021/03/11 06:00:35;;;;;;;206.20;85.15;;;;;;;;;;5001483;28;20054;-87
2021/03/11 06:03:01;;;;;;;215.57;99.20;;;;;;;;;;5001300;28;20034;-88
2021/03/11 06:05:28;;;;;;;170.02;81.90;;;;;;;;;;5001343;28;20049;-87
2021/03/11 06:07:54;;;;;;;174.57;82.97;;;;;;;;;;5001515;28;20026;-87
2021/03/11 06:10:22;;;;;;;145.25;67.75;;;;;;;;;;5001403;28;20109;-87
2021/03/11 06:12:49;;;;;;;131.13;62.58;;;;;;;;;;5000262;28;20023;-87
2021/03/11 06:15:20;;;;;;;141.88;66.28;;;;;;;;;;5000091;28;20054;-88
2021/03/11 06:17:48;;;;;;;124.07;59.53;;;;;;;;;;5001294;28;20026;-90
2021/03/11 06:20:14;;;;;;;158.88;73.05;;;;;;;;;;4999871;28;20057;-87
2021/03/11 06:22:40;;;;;;;152.73;70.85;;;;;;;;;;4994710;28;20039;-86
2021/03/11 06:25:07;;;;;;;124.43;56.15;;;;;;;;;;5001033;28;20057;-87
2021/03/11 06:27:33;;;;;;;99.85;49.85;;;;;;;;;;4999979;28;20108;-87
2021/03/11 06:29:59;;;;;;;129.00;58.55;;;;;;;;;;4996467;28;20027;-87
2021/03/11 06:32:25;;;;;;;113.10;54.80;;;;;;;;;;4981599;28;20027;-87
2021/03/11 06:34:51;;;;;;;95.68;50.35;;;;;;;;;;4988203;28;20031;-91
2021/03/11 06:37:35;;;;;;;92.80;47.65;;;;;;;;;;5002404;28;20046;-95
2021/03/11 06:40:12;;;;;;;227.98;125.40;;;;;;;;;;5011066;28;20116;-91
2021/03/11 06:42:38;;;;;;;212.30;119.78;;;;;;;;;;5008102;28;20117;-83
2021/03/11 06:45:18;;;;;;;169.80;95.53;;;;;;;;;;4999343;28;20042;-83
2021/03/11 06:47:44;;;;;;;126.55;64.88;;;;;;;;;;5000534;28;20022;-83
2021/03/11 06:50:11;;;;;;;114.55;54.92;;;;;;;;;;5000308;28;20050;-82
2021/03/11 06:52:37;;;;;;;93.07;48.10;;;;;;;;;;4999730;28;20057;-83
2021/03/11 06:55:09;;;;;;;101.45;48.30;;;;;;;;;;5000113;28;20041;-82
2021/03/11 06:57:35;;;;;;;;;;;;;;;;;;4999523;28;20033;-83
2021/03/11 07:00:04;;;;;;;97.10;47.83;;;;;;;;;;4999093;28;19906;-83
2021/03/11 07:02:30;;;;;;;91.65;48.00;;;;;;;;;;5000064;28;20030;-83
2021/03/11 07:05:11;;;;;;;95.38;48.25;;;;;;;;;;5000131;28;20022;-82
2021/03/11 07:07:37;;;;;;;88.85;46.35;;;;;;;;;;4999800;28;20037;-82
2021/03/11 07:10:03;;;;;;;96.97;49.53;;;;;;;;;;4998917;28;20041;-83
2021/03/11 07:12:49;;;;;;;97.13;47.70;;;;;;;;;;4999673;28;20158;-82
2021/03/11 07:15:16;;;;;;;90.13;47.85;;;;;;;;;;4999662;28;20101;-82
2021/03/11 07:17:42;;;;;;;104.22;48.95;;;;;;;;;;4999497;28;20031;-81
2021/03/11 07:20:11;;;;;;;88.25;47.08;;;;;;;;;;4998477;28;20034;-82
2021/03/11 07:22:38;;;;;;;82.35;42.58;;;;;;;;;;4999247;28;20336;-82
2021/03/11 07:25:05;;;;;;;79.80;39.88;;;;;;;;;;4998604;28;20023;-82
2021/03/11 07:27:41;;;;;;;72.15;37.55;;;;;;;;;;4999538;28;20023;-82
2021/03/11 07:30:08;;;;;;;69.25;36.15;;;;;;;;;;4999502;28;20110;-83
2021/03/11 07:32:35;;;;;;;79.55;39.22;;;;;;;;;;4999128;28;20437;-82
2021/03/11 07:35:02;;;;;;;61.17;34.22;;;;;;;;;;4999266;28;20030;-83
2021/03/11 07:37:28;;;;;;;59.67;32.10;;;;;;;;;;4997745;28;20042;-82
2021/03/11 07:39:58;;;;;;;61.05;32.75;;;;;;;;;;4999307;28;20027;-82
2021/03/11 07:42:24;;;;;;;67.00;35.17;;;;;;;;;;4999093;28;20030;-81
2021/03/11 07:44:51;;;;;;;75.35;38.33;;;;;;;;;;4999303;28;20033;-83
2021/03/11 07:47:18;;;;;;;60.90;30.90;;;;;;;;;;4998783;28;20117;-82
2021/03/11 07:49:44;;;;;;;67.05;34.92;;;;;;;;;;4999064;28;20033;-82
2021/03/11 07:52:11;;;;;;;60.63;34.95;;;;;;;;;;4998513;28;20045;-82
2021/03/11 07:54:37;;;;;;;64.88;34.75;;;;;;;;;;4999043;28;20026;-81
2021/03/11 07:57:03;;;;;;;82.30;41.05;;;;;;;;;;4998721;28;20026;-82
2021/03/11 07:59:30;;;;;;;78.30;37.75;;;;;;;;;;4997509;28;20113;-82
2021/03/11 08:01:59;;;;;;;68.07;35.33;;;;;;;;;;4998874;28;20045;-83
2021/03/11 08:04:26;;;;;;;73.93;37.03;;;;;;;;;;4997722;28;20037;-82
2021/03/11 08:06:52;;;;;;;69.30;36.13;;;;;;;;;;4998900;28;20097;-81
2021/03/11 08:09:37;;;;;;;80.80;40.33;;;;;;;;;;4998521;28;20022;-81
2021/03/11 08:12:32;;;;;;;68.53;36.35;;;;;;;;;;4998037;28;20033;-82
2021/03/11 08:15:00;;;;;;;67.88;34.72;;;;;;;;;;4957789;28;20124;-81
2021/03/11 08:17:35;;;;;;;64.32;34.10;;;;;;;;;;4957726;29;20349;-82
2021/03/11 08:20:04;;;;;;;69.97;36.33;;;;;;;;;;4957822;28;20130;-81
2021/03/11 08:22:49;;;;;;;57.70;33.20;;;;;;;;;;4957402;28;20031;-81
2021/03/11 08:25:42;;;;;;;66.22;33.65;;;;;;;;;;4957453;28;20111;-82
2021/03/11 08:28:08;;;;;;;60.63;33.13;;;;;;;;;;4953228;28;20035;-81
2021/03/11 08:30:40;;;;;;;61.83;34.17;;;;;;;;;;4957523;29;20031;-80
2021/03/11 08:33:07;;;;;;;71.88;35.17;;;;;;;;;;4957360;28;20082;-81
2021/03/11 08:35:59;;;;;;;59.03;32.97;;;;;;;;;;4957372;28;20024;-81
2021/03/11 08:38:27;;;;;;;67.22;34.50;;;;;;;;;;4953380;29;20122;-81
2021/03/11 08:40:56;;;;;;;61.75;32.13;;;;;;;;;;4941260;29;20398;-81
2021/03/11 08:43:38;;;;;;;63.20;33.45;;;;;;;;;;4957222;28;20067;-81
2021/03/11 08:46:04;;;;;;;64.00;34.55;;;;;;;;;;4957167;28;20046;-80
2021/03/11 08:48:40;;;;;;;68.80;35.28;;;;;;;;;;4957038;28;20163;-81
2021/03/11 08:51:06;;;;;;;70.53;34.85;;;;;;;;;;4973245;28;20459;-81
2021/03/11 08:53:38;;;;;;;55.45;30.15;;;;;;;;;;4997346;28;20028;-81
2021/03/11 08:56:19;;;;;;;52.50;28.88;;;;;;;;;;4997597;28;20030;-81
2021/03/11 08:58:52;;;;;;;63.92;32.35;;;;;;;;;;4997440;28;20030;-88
2021/03/11 09:01:37;;;;;;;57.97;28.85;;;;;;;;;;4997253;28;20096;-82
2021/03/11 09:04:05;;;;;;;49.58;27.40;;;;;;;;;;4996461;28;20022;-81
2021/03/11 09:06:49;;;;;;;45.13;26.90;;;;;;;;;;4997032;28;20349;-81
2021/03/11 09:09:15;;;;;;;49.30;26.15;;;;;;;;;;4996502;28;20114;-81
2021/03/11 09:11:54;;;;;;;59.67;30.80;;;;;;;;;;4997425;28;20050;-81
2021/03/11 09:14:21;;;;;;;49.92;26.63;;;;;;;;;;4997598;28;20034;-81
2021/03/11 09:16:47;;;;;;;48.63;25.80;;;;;;;;;;4997360;28;20424;-81
2021/03/11 09:19:14;;;;;;;114.55;61.58;;;;;;;;;;4997291;28;20035;-79
2021/03/11 09:21:40;;;;;;;56.75;33.10;;;;;;;;;;4997573;28;20030;-80
2021/03/11 09:24:15;;;;;;;46.90;23.27;;;;;;;;;;4996743;28;20401;-81
2021/03/11 09:26:41;;;;;;;37.58;21.60;;;;;;;;;;4997372;28;20027;-80
2021/03/11 09:29:07;;;;;;;30.65;18.70;;;;;;;;;;4997323;28;20067;-81
2021/03/11 09:31:33;;;;;;;39.05;22.20;;;;;;;;;;4997321;28;20030;-80
2021/03/11 09:34:02;;;;;;;34.55;18.88;;;;;;;;;;4997258;28;20026;-79
2021/03/11 09:36:28;;;;;;;32.92;18.90;;;;;;;;;;4997122;28;20041;-80
2021/03/11 09:39:04;;;;;;;30.38;20.15;;;;;;;;;;4997177;28;20117;-80
2021/03/11 09:41:31;;;;;;;33.83;18.55;;;;;;;;;;4997269;28;20065;-80
2021/03/11 09:44:02;;;;;;;41.25;21.95;;;;;;;;;;4995932;28;20045;-82
2021/03/11 09:46:28;;;;;;;37.38;21.70;;;;;;;;;;4996010;28;20371;-80
2021/03/11 09:48:57;;;;;;;30.92;16.63;;;;;;;;;;4996982;28;20121;-81
2021/03/11 09:51:24;;;;;;;33.08;20.05;;;;;;;;;;4996861;28;20069;-81
2021/03/11 09:53:50;;;;;;;36.60;20.80;;;;;;;;;;4996914;28;20022;-80
2021/03/11 09:56:21;;;;;;;59.17;25.60;;;;;;;;;;4995899;28;20019;-82
2021/03/11 09:58:51;;;;;;;38.38;20.05;;;;;;;;;;4997037;28;20560;-82
2021/03/11 10:01:21;;;;;;;40.40;20.70;;;;;;;;;;4996890;28;20053;-80
2021/03/11 10:03:47;;;;;;;38.10;20.38;;;;;;;;;;4996945;28;20022;-81
2021/03/11 10:06:15;;;;;;;46.50;23.45;;;;;;;;;;4996931;28;20030;-81
2021/03/11 10:08:42;;;;;;;44.33;22.33;;;;;;;;;;4996570;28;20029;-81
2021/03/11 10:11:11;;;;;;;39.78;21.52;;;;;;;;;;4996865;28;20025;-80
2021/03/11 10:13:48;;;;;;;80.60;31.75;;;;;;;;;;4997125;28;20062;-81
2021/03/11 10:16:14;;;;;;;80.88;32.33;;;;;;;;;;4998324;28;20045;-81
2021/03/11 10:19:03;;;;;;;72.20;30.52;;;;;;;;;;4997164;28;20026;-80
2021/03/11 10:21:30;;;;;;;48.88;22.83;;;;;;;;;;4996755;28;20042;-80
2021/03/11 10:23:56;;;;;;;49.28;20.27;;;;;;;;;;4996641;28;20023;-80
2021/03/11 10:26:22;;;;;;;33.33;17.30;;;;;;;;;;4996707;28;20022;-81
2021/03/11 10:28:52;;;;;;;30.77;15.93;;;;;;;;;;4996614;28;20050;-80
2021/03/11 10:31:18;;;;;;;31.80;18.40;;;;;;;;;;4995529;28;20050;-81
2021/03/11 10:33:44;;;;;;;65.53;27.60;;;;;;;;;;4997289;28;20305;-81
2021/03/11 10:36:15;;;;;;;73.30;28.65;;;;;;;;;;4999426;28;20454;-81
2021/03/11 10:38:42;;;;;;;61.00;24.40;;;;;;;;;;4999780;28;20030;-81
2021/03/11 10:41:15;;;;;;;39.15;21.08;;;;;;;;;;4999893;28;20109;-81
2021/03/11 10:43:42;;;;;;;33.33;17.77;;;;;;;;;;4997598;28;20030;-81
2021/03/11 10:46:08;;;;;;;31.58;18.33;;;;;;;;;;4999848;28;20033;-80
2021/03/11 10:48:47;;;;;;;27.52;15.73;;;;;;;;;;4998437;28;20058;-81
2021/03/11 10:51:16;;;;;;;54.83;22.33;;;;;;;;;;4998553;28;20054;-81
2021/03/11 10:53:42;;;;;;;29.27;15.98;;;;;;;;;;4999881;28;20313;-81
2021/03/11 10:56:09;;;;;;;38.90;22.20;;;;;;;;;;4999739;28;20019;-81
2021/03/11 10:58:35;;;;;;;38.90;17.50;;;;;;;;;;4998594;28;20042;-80
2021/03/11 11:01:10;;;;;;;30.80;18.10;;;;;;;;;;4999457;28;20109;-80
2021/03/11 11:03:37;;;;;;;46.50;21.88;;;;;;;;;;5000083;28;20354;-81
2021/03/11 11:06:04;;;;;;;99.50;35.17;;;;;;;;;;5000071;28;20037;-80
2021/03/11 11:08:30;;;;;;;69.88;29.15;;;;;;;;;;4999651;28;20026;-81
2021/03/11 11:10:56;;;;;;;47.65;24.33;;;;;;;;;;4999825;28;20025;-81
2021/03/11 11:13:23;;;;;;;39.30;20.38;;;;;;;;;;4998379;28;20023;-81
2021/03/11 11:15:49;;;;;;;57.20;25.67;;;;;;;;;;4999598;28;20034;-78
2021/03/11 11:18:15;;;;;;;40.05;22.08;;;;;;;;;;5015260;28;20412;-85
2021/03/11 11:20:41;;;;;;;37.03;19.80;;;;;;;;;;5019253;28;20401;-79
2021/03/11 11:23:07;;;;;;;29.60;18.30;;;;;;;;;;5005526;28;20029;-82
2021/03/11 11:25:33;;;;;;;54.53;26.55;;;;;;;;;;4999354;28;20030;-82
2021/03/11 11:31:03;;;;;;;44.70;22.77;;;;;;;;;;4999245;28;20085;-82
2021/03/11 11:33:29;;;;;;;38.75;19.15;;;;;;;;;;4999259;28;20054;-82
2021/03/11 11:35:55;;;;;;;29.55;18.08;;;;;;;;;;4997916;28;20041;-81
2021/03/11 11:38:21;;;;;;;37.33;18.50;;;;;;;;;;4997824;28;20034;-82
2021/03/11 11:40:47;;;;;;;36.50;20.75;;;;;;;;;;4999230;28;20113;-82
2021/03/11 11:43:14;;;;;;;32.00;19.08;;;;;;;;;;4999476;28;20046;-82
2021/03/11 11:45:40;;;;;;;30.38;18.80;;;;;;;;;;4998682;28;20380;-82
2021/03/11 11:48:06;;;;;;;33.13;17.05;;;;;;;;;;4999269;28;20093;-82
2021/03/11 11:50:32;;;;;;;40.05;21.25;;;;;;;;;;4998542;28;20110;-83
2021/03/11 11:52:58;;;;;;;35.30;20.02;;;;;;;;;;4998870;28;20052;-83
2021/03/11 11:55:24;;;;;;;47.40;21.88;;;;;;;;;;4998874;28;20018;-83
2021/03/11 11:57:50;;;;;;;32.90;17.98;;;;;;;;;;4999161;28;20029;-83
2021/03/11 12:00:18;;;;;;;47.45;21.58;;;;;;;;;;4998611;28;20049;-82
2021/03/11 12:02:44;;;;;;;41.05;22.80;;;;;;;;;;4998665;28;20026;-83
2021/03/11 12:05:10;;;;;;;44.60;24.20;;;;;;;;;;4998630;28;20033;-83
2021/03/11 12:07:36;;;;;;;39.40;19.90;;;;;;;;;;4997612;28;20030;-82
2021/03/11 12:10:06;;;;;;;41.35;23.92;;;;;;;;;;4997694;28;20445;-81
2021/03/11 12:12:32;;;;;;;34.75;21.17;;;;;;;;;;4996182;28;20038;-82
2021/03/11 12:14:58;;;;;;;33.65;19.98;;;;;;;;;;4998390;28;20413;-82
2021/03/11 12:17:24;;;;;;;39.13;20.90;;;;;;;;;;4998734;28;20472;-87
2021/03/11 12:19:50;;;;;;;44.10;24.38;;;;;;;;;;4999131;28;20401;-80
2021/03/11 12:22:16;;;;;;;32.72;18.88;;;;;;;;;;4998132;28;20030;-83
2021/03/11 12:24:42;;;;;;;36.33;18.33;;;;;;;;;;4997442;28;20443;-82
2021/03/11 12:27:08;;;;;;;37.67;20.67;;;;;;;;;;4998478;28;20034;-83
2021/03/11 12:29:35;;;;;;;30.80;19.45;;;;;;;;;;4998191;28;20050;-83
2021/03/11 12:32:01;;;;;;;38.92;21.55;;;;;;;;;;4989454;28;20424;-83
2021/03/11 12:34:27;;;;;;;37.35;22.20;;;;;;;;;;4989938;28;20329;-83
2021/03/11 12:36:53;;;;;;;34.83;19.13;;;;;;;;;;4998125;28;20062;-83
2021/03/11 12:39:19;;;;;;;33.80;19.33;;;;;;;;;;4997958;28;20018;-83
2021/03/11 12:41:45;;;;;;;34.35;19.80;;;;;;;;;;4998067;28;20126;-83
2021/03/11 12:44:11;;;;;;;32.47;19.52;;;;;;;;;;4997248;28;20010;-82
2021/03/11 12:46:37;;;;;;;37.40;21.77;;;;;;;;;;4997982;28;20054;-83
2021/03/11 12:49:03;;;;;;;31.08;17.83;;;;;;;;;;4997992;28;20031;-84
2021/03/11 12:51:29;;;;;;;53.67;26.35;;;;;;;;;;4996498;28;20397;-84
2021/03/11 12:53:56;;;;;;;33.28;17.15;;;;;;;;;;4997852;28;20030;-83
2021/03/11 12:56:24;;;;;;;32.50;19.23;;;;;;;;;;4997450;28;20033;-81
2021/03/11 12:58:50;;;;;;;34.85;19.38;;;;;;;;;;4996985;28;20117;-81
2021/03/11 13:01:16;;;;;;;51.47;30.67;;;;;;;;;;4997814;28;20030;-82
2021/03/11 13:03:42;;;;;;;34.65;19.27;;;;;;;;;;4997577;28;20038;-82
2021/03/11 13:06:08;;;;;;;31.13;18.13;;;;;;;;;;4997648;28;20089;-81
2021/03/11 13:08:34;;;;;;;32.80;17.60;;;;;;;;;;4997353;28;20417;-81
2021/03/11 13:11:00;;;;;;;46.28;23.63;;;;;;;;;;4997144;28;20030;-82
2021/03/11 13:13:26;;;;;;;31.83;17.67;;;;;;;;;;4997373;28;20018;-83
2021/03/11 13:15:53;;;;;;;34.58;18.70;;;;;;;;;;4997478;28;20413;-82
2021/03/11 13:18:19;;;;;;;34.88;19.85;;;;;;;;;;4997734;28;20113;-82
2021/03/11 13:20:45;;;;;;;42.95;21.55;;;;;;;;;;4997702;28;20045;-82
2021/03/11 13:23:11;;;;;;;37.20;20.23;;;;;;;;;;4997287;28;20048;-82
2021/03/11 13:25:39;;;;;;;30.58;17.55;;;;;;;;;;4996190;28;20042;-83
2021/03/11 13:28:05;;;;;;;33.55;17.73;;;;;;;;;;4997291;28;20038;-81
2021/03/11 13:30:31;;;;;;;35.97;18.35;;;;;;;;;;4997379;28;20101;-82
2021/03/11 13:32:57;;;;;;;31.35;19.20;;;;;;;;;;4997136;28;20026;-82
2021/03/11 13:35:24;;;;;;;37.97;20.70;;;;;;;;;;4997305;28;20022;-82
2021/03/11 13:37:50;;;;;;;34.85;19.92;;;;;;;;;;4997406;28;20026;-82
2021/03/11 13:40:17;;;;;;;39.42;19.45;;;;;;;;;;4997454;28;20034;-83
2021/03/11 13:42:43;;;;;;;29.33;19.27;;;;;;;;;;4996807;28;20058;-82
2021/03/11 13:45:09;;;;;;;30.65;17.98;;;;;;;;;;4997545;28;20096;-83
2021/03/11 13:47:35;;;;;;;27.98;17.85;;;;;;;;;;4997407;28;20031;-83
2021/03/11 13:50:02;;;;;;;34.30;19.25;;;;;;;;;;4997145;28;20050;-83
2021/03/11 13:52:29;;;;;;;34.78;20.45;;;;;;;;;;4987607;28;20102;-83
2021/03/11 13:54:55;;;;;;;32.92;18.77;;;;;;;;;;4977879;28;20027;-82
2021/03/11 13:57:21;;;;;;;32.20;19.95;;;;;;;;;;4977500;28;20027;-82
2021/03/11 13:59:47;;;;;;;33.53;20.08;;;;;;;;;;4977787;28;20027;-83
2021/03/11 14:02:13;;;;;;;39.00;20.98;;;;;;;;;;4977878;28;20038;-83
2021/03/11 14:04:40;;;;;;;33.70;20.58;;;;;;;;;;4977811;28;20050;-83
2021/03/11 14:07:06;;;;;;;41.17;21.65;;;;;;;;;;4977733;28;20023;-83
2021/03/11 14:09:32;;;;;;;32.60;20.55;;;;;;;;;;4979584;28;20062;-83
2021/03/11 14:11:58;;;;;;;44.03;23.90;;;;;;;;;;4981358;28;20023;-83
2021/03/11 14:14:24;;;;;;;42.20;22.95;;;;;;;;;;4980271;28;20019;-83
2021/03/11 14:16:50;;;;;;;35.78;20.15;;;;;;;;;;4981263;28;20019;-83
2021/03/11 14:19:16;;;;;;;37.40;22.27;;;;;;;;;;4981197;28;20031;-83
2021/03/11 14:21:42;;;;;;;36.40;19.67;;;;;;;;;;4982225;28;20433;-86